DLH6AV EDDF-EDDP
Flight info
| Callsign | DLH6AV |
|---|---|
| Flight time | 0h 37m |
| Altitude | 23000 |
| Route | SULUS7S/18 SULUS Z12 LASGA/N0389F220 T953 VOCIM/N0384F210 T954 GOXLI GOXLI1R |
| Aircraft | A320/M-SDE3FGHIRWY/LB1 |
Departure
| Time | 2026-05-07 18:35 |
|---|---|
| Airport | Frankfurt Main Airport (EDDF) |
Arrival
| Time | 2026-05-07 19:13 |
|---|---|
| Airport | Leipzig/Halle Airport (EDDP) |
| Time | Latitude | Longitude | Altitude | Speed | Heading |
|---|---|---|---|---|---|
| 2026-05-07 18:01 | 50.04752 | 8.56882 | 345 ft | 0 kts | 295° |
| 2026-05-07 18:19 | 50.04748 | 8.56895 | 354 ft | 4 kts | 261° |
| 2026-05-07 18:19 | 50.04745 | 8.56934 | 353 ft | 4 kts | 289° |
| 2026-05-07 18:19 | 50.04735 | 8.56972 | 356 ft | 4 kts | 284° |
| 2026-05-07 18:20 | 50.04733 | 8.56992 | 356 ft | 2 kts | 204° |
| 2026-05-07 18:20 | 50.04737 | 8.56995 | 352 ft | 0 kts | 204° |
| 2026-05-07 18:23 | 50.04731 | 8.56991 | 356 ft | 5 kts | 204° |
| 2026-05-07 18:23 | 50.04693 | 8.56964 | 350 ft | 6 kts | 204° |
| 2026-05-07 18:23 | 50.04661 | 8.56942 | 351 ft | 4 kts | 204° |
| 2026-05-07 18:23 | 50.04627 | 8.56920 | 349 ft | 6 kts | 198° |
| 2026-05-07 18:24 | 50.04578 | 8.56902 | 345 ft | 9 kts | 193° |
| 2026-05-07 18:24 | 50.04512 | 8.56877 | 345 ft | 10 kts | 193° |
| 2026-05-07 18:24 | 50.04450 | 8.56858 | 345 ft | 8 kts | 191° |
| 2026-05-07 18:24 | 50.04396 | 8.56843 | 353 ft | 7 kts | 190° |
| 2026-05-07 18:25 | 50.04342 | 8.56827 | 345 ft | 12 kts | 191° |
| 2026-05-07 18:25 | 50.04266 | 8.56795 | 355 ft | 11 kts | 207° |
| 2026-05-07 18:25 | 50.04230 | 8.56710 | 347 ft | 9 kts | 248° |
| 2026-05-07 18:25 | 50.04210 | 8.56629 | 350 ft | 7 kts | 249° |
| 2026-05-07 18:26 | 50.04193 | 8.56556 | 352 ft | 7 kts | 250° |
| 2026-05-07 18:26 | 50.04174 | 8.56475 | 350 ft | 12 kts | 250° |
| 2026-05-07 18:26 | 50.04146 | 8.56355 | 349 ft | 11 kts | 250° |
| 2026-05-07 18:26 | 50.04121 | 8.56248 | 351 ft | 10 kts | 250° |
| 2026-05-07 18:27 | 50.04098 | 8.56153 | 347 ft | 9 kts | 250° |
| 2026-05-07 18:27 | 50.04077 | 8.56068 | 353 ft | 10 kts | 249° |
| 2026-05-07 18:27 | 50.04042 | 8.55920 | 345 ft | 15 kts | 249° |
| 2026-05-07 18:27 | 50.04007 | 8.55775 | 348 ft | 13 kts | 250° |
| 2026-05-07 18:28 | 50.03976 | 8.55646 | 352 ft | 13 kts | 249° |
| 2026-05-07 18:28 | 50.03947 | 8.55524 | 351 ft | 12 kts | 250° |
| 2026-05-07 18:28 | 50.03908 | 8.55362 | 355 ft | 16 kts | 250° |
| 2026-05-07 18:28 | 50.03871 | 8.55206 | 349 ft | 15 kts | 250° |
| 2026-05-07 18:29 | 50.03838 | 8.55066 | 345 ft | 13 kts | 250° |
| 2026-05-07 18:29 | 50.03807 | 8.54942 | 352 ft | 12 kts | 249° |
| 2026-05-07 18:29 | 50.03781 | 8.54831 | 347 ft | 10 kts | 250° |
| 2026-05-07 18:29 | 50.03754 | 8.54716 | 346 ft | 11 kts | 250° |
| 2026-05-07 18:30 | 50.03728 | 8.54609 | 351 ft | 10 kts | 250° |
| 2026-05-07 18:30 | 50.03704 | 8.54507 | 347 ft | 10 kts | 250° |
| 2026-05-07 18:30 | 50.03683 | 8.54416 | 353 ft | 8 kts | 250° |
| 2026-05-07 18:30 | 50.03662 | 8.54340 | 351 ft | 7 kts | 236° |
| 2026-05-07 18:31 | 50.03573 | 8.54332 | 352 ft | 18 kts | 160° |
| 2026-05-07 18:31 | 50.03453 | 8.54401 | 350 ft | 19 kts | 160° |
| 2026-05-07 18:31 | 50.03325 | 8.54472 | 348 ft | 20 kts | 162° |
| 2026-05-07 18:31 | 50.03230 | 8.54367 | 347 ft | 17 kts | 244° |
| 2026-05-07 18:32 | 50.03190 | 8.54204 | 349 ft | 15 kts | 249° |
| 2026-05-07 18:32 | 50.03154 | 8.54058 | 350 ft | 14 kts | 250° |
| 2026-05-07 18:32 | 50.03121 | 8.53919 | 347 ft | 14 kts | 250° |
| 2026-05-07 18:32 | 50.03088 | 8.53781 | 350 ft | 13 kts | 250° |
| 2026-05-07 18:33 | 50.03062 | 8.53657 | 345 ft | 11 kts | 265° |
| 2026-05-07 18:33 | 50.03112 | 8.53593 | 347 ft | 9 kts | 339° |
| 2026-05-07 18:33 | 50.03164 | 8.53561 | 347 ft | 7 kts | 338° |
| 2026-05-07 18:33 | 50.03207 | 8.53535 | 352 ft | 7 kts | 339° |
| 2026-05-07 18:34 | 50.03262 | 8.53513 | 346 ft | 7 kts | 7° |
| 2026-05-07 18:34 | 50.03288 | 8.53572 | 345 ft | 7 kts | 70° |
| 2026-05-07 18:34 | 50.03291 | 8.53586 | 353 ft | 0 kts | 70° |
| 2026-05-07 18:34 | 50.03343 | 8.53803 | 346 ft | 57 kts | 69° |
| 2026-05-07 18:35 | 50.03561 | 8.54711 | 346 ft | 119 kts | 69° |
| 2026-05-07 18:35 | 50.03911 | 8.56173 | 353 ft | 166 kts | 70° |
| 2026-05-07 18:35 | 50.04368 | 8.58017 | 411 ft | 195 kts | 68° |
| 2026-05-07 18:35 | 50.04862 | 8.59932 | 1066 ft | 186 kts | 68° |
| 2026-05-07 18:36 | 50.05325 | 8.61757 | 1714 ft | 181 kts | 67° |
| 2026-05-07 18:36 | 50.05822 | 8.63609 | 2200 ft | 187 kts | 65° |
| 2026-05-07 18:36 | 50.06347 | 8.65485 | 2713 ft | 190 kts | 68° |
| 2026-05-07 18:36 | 50.06698 | 8.67479 | 3258 ft | 192 kts | 77° |
| 2026-05-07 18:37 | 50.06928 | 8.69534 | 3777 ft | 195 kts | 78° |
| 2026-05-07 18:37 | 50.07121 | 8.71687 | 4095 ft | 208 kts | 86° |
| 2026-05-07 18:37 | 50.07109 | 8.74019 | 4369 ft | 225 kts | 90° |
| 2026-05-07 18:37 | 50.07073 | 8.76580 | 4513 ft | 248 kts | 90° |
| 2026-05-07 18:38 | 50.07028 | 8.79372 | 4649 ft | 269 kts | 90° |
| 2026-05-07 18:38 | 50.06976 | 8.82380 | 4785 ft | 287 kts | 90° |
| 2026-05-07 18:38 | 50.06922 | 8.85558 | 4951 ft | 299 kts | 90° |
| 2026-05-07 18:38 | 50.06865 | 8.88824 | 5284 ft | 304 kts | 90° |
| 2026-05-07 18:39 | 50.06805 | 8.92124 | 5656 ft | 306 kts | 90° |
| 2026-05-07 18:39 | 50.06744 | 8.95452 | 6033 ft | 309 kts | 91° |
| 2026-05-07 18:39 | 50.06680 | 8.98807 | 6400 ft | 311 kts | 91° |
| 2026-05-07 18:39 | 50.06626 | 9.02180 | 6746 ft | 313 kts | 90° |
| 2026-05-07 18:40 | 50.06630 | 9.05574 | 7084 ft | 315 kts | 88° |
| 2026-05-07 18:40 | 50.06671 | 9.08984 | 7429 ft | 316 kts | 88° |
| 2026-05-07 18:40 | 50.06725 | 9.12412 | 7762 ft | 318 kts | 88° |
| 2026-05-07 18:40 | 50.06782 | 9.15864 | 8077 ft | 319 kts | 88° |
| 2026-05-07 18:41 | 50.06832 | 9.19324 | 8390 ft | 321 kts | 88° |
| 2026-05-07 18:41 | 50.06875 | 9.22798 | 8707 ft | 322 kts | 88° |
| 2026-05-07 18:41 | 50.06915 | 9.26293 | 9031 ft | 323 kts | 88° |
| 2026-05-07 18:41 | 50.06953 | 9.29798 | 9378 ft | 324 kts | 88° |
| 2026-05-07 18:42 | 50.06991 | 9.33303 | 9726 ft | 324 kts | 89° |
| 2026-05-07 18:42 | 50.07028 | 9.36810 | 10065 ft | 325 kts | 89° |
| 2026-05-07 18:42 | 50.07060 | 9.40326 | 10378 ft | 325 kts | 89° |
| 2026-05-07 18:42 | 50.07092 | 9.43835 | 10694 ft | 325 kts | 89° |
| 2026-05-07 18:43 | 50.07120 | 9.47356 | 11015 ft | 325 kts | 89° |
| 2026-05-07 18:43 | 50.07147 | 9.50875 | 11337 ft | 325 kts | 89° |
| 2026-05-07 18:43 | 50.07175 | 9.54392 | 11665 ft | 325 kts | 89° |
| 2026-05-07 18:43 | 50.07205 | 9.57911 | 11993 ft | 325 kts | 89° |
| 2026-05-07 18:44 | 50.07235 | 9.61435 | 12326 ft | 325 kts | 89° |
| 2026-05-07 18:44 | 50.07265 | 9.64954 | 12663 ft | 325 kts | 88° |
| 2026-05-07 18:44 | 50.07292 | 9.68474 | 13001 ft | 325 kts | 88° |
| 2026-05-07 18:44 | 50.07316 | 9.71994 | 13349 ft | 325 kts | 88° |
| 2026-05-07 18:45 | 50.07337 | 9.75504 | 13697 ft | 325 kts | 89° |
| 2026-05-07 18:45 | 50.07357 | 9.79044 | 14031 ft | 332 kts | 89° |
| 2026-05-07 18:45 | 50.07378 | 9.82650 | 14469 ft | 342 kts | 89° |
| 2026-05-07 18:45 | 50.07400 | 9.86397 | 14987 ft | 350 kts | 89° |
| 2026-05-07 18:46 | 50.07423 | 9.90225 | 15514 ft | 358 kts | 89° |
| 2026-05-07 18:46 | 50.07445 | 9.94135 | 16057 ft | 365 kts | 89° |
| 2026-05-07 18:46 | 50.07461 | 9.98173 | 16609 ft | 371 kts | 89° |
| 2026-05-07 18:46 | 50.07472 | 10.02161 | 17154 ft | 376 kts | 89° |
| 2026-05-07 18:47 | 50.07484 | 10.06264 | 17715 ft | 382 kts | 89° |
| 2026-05-07 18:47 | 50.07497 | 10.10421 | 18294 ft | 386 kts | 89° |
| 2026-05-07 18:47 | 50.07508 | 10.14625 | 18800 ft | 391 kts | 89° |
| 2026-05-07 18:47 | 50.07518 | 10.18874 | 19312 ft | 395 kts | 89° |
| 2026-05-07 18:48 | 50.07528 | 10.23168 | 19827 ft | 398 kts | 89° |
| 2026-05-07 18:48 | 50.07536 | 10.27500 | 20354 ft | 402 kts | 90° |
| 2026-05-07 18:48 | 50.07542 | 10.31874 | 20886 ft | 405 kts | 90° |
| 2026-05-07 18:48 | 50.07600 | 10.36331 | 21435 ft | 408 kts | 83° |
| 2026-05-07 18:49 | 50.08268 | 10.40608 | 21988 ft | 409 kts | 66° |
| 2026-05-07 18:49 | 50.09712 | 10.44402 | 22551 ft | 408 kts | 49° |
| 2026-05-07 18:49 | 50.11747 | 10.47497 | 22977 ft | 413 kts | 41° |
| 2026-05-07 18:49 | 50.13916 | 10.50522 | 23075 ft | 425 kts | 41° |
| 2026-05-07 18:50 | 50.16159 | 10.53636 | 23084 ft | 438 kts | 41° |
| 2026-05-07 18:50 | 50.18463 | 10.56842 | 23083 ft | 449 kts | 41° |
| 2026-05-07 18:50 | 50.20813 | 10.60130 | 23081 ft | 459 kts | 41° |
| 2026-05-07 18:50 | 50.23175 | 10.63450 | 23085 ft | 467 kts | 41° |
| 2026-05-07 18:51 | 50.25607 | 10.66872 | 23084 ft | 474 kts | 41° |
| 2026-05-07 18:51 | 50.28106 | 10.70389 | 23084 ft | 480 kts | 41° |
| 2026-05-07 18:51 | 50.30588 | 10.73892 | 23081 ft | 482 kts | 41° |
| 2026-05-07 18:51 | 50.33078 | 10.77410 | 23081 ft | 482 kts | 41° |
| 2026-05-07 18:52 | 50.35553 | 10.80916 | 22618 ft | 475 kts | 41° |
| 2026-05-07 18:52 | 50.37169 | 10.83213 | 21960 ft | 472 kts | 41° |
| 2026-05-07 18:52 | 50.39580 | 10.86646 | 21068 ft | 465 kts | 41° |
| 2026-05-07 18:52 | 50.41957 | 10.90034 | 20220 ft | 459 kts | 41° |
| 2026-05-07 18:53 | 50.44311 | 10.93385 | 19480 ft | 456 kts | 41° |
| 2026-05-07 18:53 | 50.46659 | 10.96722 | 19199 ft | 455 kts | 41° |
| 2026-05-07 18:53 | 50.49762 | 11.01133 | 19063 ft | 454 kts | 41° |
| 2026-05-07 18:53 | 50.52104 | 11.04472 | 19086 ft | 455 kts | 41° |
| 2026-05-07 18:54 | 50.53686 | 11.06730 | 19087 ft | 455 kts | 41° |
| 2026-05-07 18:54 | 50.56026 | 11.10079 | 19083 ft | 455 kts | 41° |
| 2026-05-07 18:54 | 50.58363 | 11.13435 | 19085 ft | 455 kts | 41° |
| 2026-05-07 18:54 | 50.60701 | 11.16794 | 19085 ft | 455 kts | 41° |
| 2026-05-07 18:55 | 50.63117 | 11.20010 | 19084 ft | 454 kts | 34° |
| 2026-05-07 18:55 | 50.65837 | 11.22521 | 19093 ft | 453 kts | 24° |
| 2026-05-07 18:55 | 50.68695 | 11.24606 | 19088 ft | 453 kts | 24° |
| 2026-05-07 18:55 | 50.71511 | 11.26650 | 19085 ft | 435 kts | 24° |
| 2026-05-07 18:56 | 50.74189 | 11.28599 | 19088 ft | 414 kts | 24° |
| 2026-05-07 18:56 | 50.76745 | 11.30465 | 19092 ft | 395 kts | 24° |
| 2026-05-07 18:56 | 50.79180 | 11.32255 | 19070 ft | 379 kts | 24° |
| 2026-05-07 18:56 | 50.81529 | 11.33982 | 18874 ft | 368 kts | 24° |
| 2026-05-07 18:57 | 50.83837 | 11.35682 | 18461 ft | 364 kts | 24° |
| 2026-05-07 18:57 | 50.86127 | 11.37368 | 18018 ft | 362 kts | 24° |
| 2026-05-07 18:57 | 50.88400 | 11.39041 | 17565 ft | 359 kts | 24° |
| 2026-05-07 18:57 | 50.90658 | 11.40703 | 17116 ft | 356 kts | 24° |
| 2026-05-07 18:58 | 50.92888 | 11.42345 | 16735 ft | 352 kts | 24° |
| 2026-05-07 18:58 | 50.95098 | 11.43973 | 16286 ft | 349 kts | 24° |
| 2026-05-07 18:58 | 50.97292 | 11.45589 | 15853 ft | 347 kts | 24° |
| 2026-05-07 18:58 | 50.99472 | 11.47195 | 15430 ft | 344 kts | 24° |
| 2026-05-07 18:59 | 51.01638 | 11.48791 | 15022 ft | 342 kts | 24° |
| 2026-05-07 18:59 | 51.03782 | 11.50378 | 14631 ft | 339 kts | 24° |
| 2026-05-07 18:59 | 51.05908 | 11.51954 | 14233 ft | 336 kts | 24° |
| 2026-05-07 18:59 | 51.08021 | 11.53523 | 13818 ft | 334 kts | 24° |
| 2026-05-07 19:00 | 51.10089 | 11.55193 | 13365 ft | 333 kts | 33° |
| 2026-05-07 19:00 | 51.11714 | 11.57785 | 12929 ft | 333 kts | 56° |
| 2026-05-07 19:00 | 51.12617 | 11.61172 | 12473 ft | 334 kts | 73° |
| 2026-05-07 19:00 | 51.13197 | 11.64750 | 11985 ft | 334 kts | 75° |
| 2026-05-07 19:01 | 51.13746 | 11.68330 | 11542 ft | 331 kts | 75° |
| 2026-05-07 19:01 | 51.14279 | 11.71834 | 11403 ft | 320 kts | 75° |
| 2026-05-07 19:01 | 51.14790 | 11.75213 | 11271 ft | 308 kts | 75° |
| 2026-05-07 19:01 | 51.15281 | 11.78477 | 11123 ft | 299 kts | 75° |
| 2026-05-07 19:02 | 51.15760 | 11.81674 | 10833 ft | 295 kts | 75° |
| 2026-05-07 19:02 | 51.16234 | 11.84847 | 10492 ft | 293 kts | 75° |
| 2026-05-07 19:02 | 51.16705 | 11.88002 | 10141 ft | 292 kts | 75° |
| 2026-05-07 19:02 | 51.17167 | 11.91098 | 9785 ft | 291 kts | 75° |
| 2026-05-07 19:03 | 51.17645 | 11.94297 | 9213 ft | 295 kts | 75° |
| 2026-05-07 19:03 | 51.18126 | 11.97501 | 8668 ft | 299 kts | 75° |
| 2026-05-07 19:03 | 51.18618 | 12.00727 | 8123 ft | 301 kts | 75° |
| 2026-05-07 19:03 | 51.19299 | 12.03874 | 7592 ft | 301 kts | 58° |
| 2026-05-07 19:04 | 51.20669 | 12.06282 | 7076 ft | 298 kts | 33° |
| 2026-05-07 19:04 | 51.22564 | 12.07526 | 6556 ft | 296 kts | 8° |
| 2026-05-07 19:04 | 51.24628 | 12.07322 | 6003 ft | 295 kts | 342° |
| 2026-05-07 19:04 | 51.26401 | 12.05718 | 5456 ft | 296 kts | 317° |
| 2026-05-07 19:05 | 51.27561 | 12.03036 | 4912 ft | 296 kts | 291° |
| 2026-05-07 19:05 | 51.27883 | 11.99806 | 4356 ft | 297 kts | 269° |
| 2026-05-07 19:05 | 51.27727 | 11.96535 | 4009 ft | 290 kts | 265° |
| 2026-05-07 19:05 | 51.27533 | 11.93414 | 3876 ft | 275 kts | 264° |
| 2026-05-07 19:06 | 51.27399 | 11.90447 | 3744 ft | 261 kts | 275° |
| 2026-05-07 19:06 | 51.29140 | 11.86097 | 3482 ft | 228 kts | 338° |
| 2026-05-07 19:06 | 51.30627 | 11.85479 | 3177 ft | 223 kts | 352° |
| 2026-05-07 19:07 | 51.32157 | 11.85237 | 3003 ft | 221 kts | 357° |
| 2026-05-07 19:07 | 51.33693 | 11.85084 | 3000 ft | 222 kts | 358° |
| 2026-05-07 19:07 | 51.35235 | 11.84975 | 2999 ft | 221 kts | 4° |
| 2026-05-07 19:07 | 51.36669 | 11.85725 | 3004 ft | 220 kts | 32° |
| 2026-05-07 19:08 | 51.37923 | 11.87132 | 3003 ft | 221 kts | 37° |
| 2026-05-07 19:08 | 51.39141 | 11.88622 | 3003 ft | 221 kts | 37° |
| 2026-05-07 19:08 | 51.40354 | 11.90122 | 3004 ft | 220 kts | 37° |
| 2026-05-07 19:08 | 51.41346 | 11.91944 | 2933 ft | 221 kts | 72° |
| 2026-05-07 19:09 | 51.41543 | 11.94376 | 2906 ft | 220 kts | 84° |
| 2026-05-07 19:09 | 51.41669 | 11.96689 | 2831 ft | 198 kts | 82° |
| 2026-05-07 19:09 | 51.41848 | 11.98784 | 2668 ft | 182 kts | 81° |
| 2026-05-07 19:09 | 51.41991 | 12.00734 | 2735 ft | 174 kts | 83° |
| 2026-05-07 19:10 | 51.42076 | 12.02666 | 2817 ft | 174 kts | 84° |
| 2026-05-07 19:10 | 51.42189 | 12.04586 | 2866 ft | 174 kts | 81° |
| 2026-05-07 19:10 | 51.42369 | 12.06546 | 2439 ft | 178 kts | 82° |
| 2026-05-07 19:10 | 51.42531 | 12.08459 | 2175 ft | 172 kts | 82° |
| 2026-05-07 19:11 | 51.42563 | 12.10357 | 2072 ft | 170 kts | 86° |
| 2026-05-07 19:11 | 51.42654 | 12.12238 | 1958 ft | 169 kts | 82° |
| 2026-05-07 19:11 | 51.42769 | 12.14079 | 1763 ft | 160 kts | 83° |
| 2026-05-07 19:11 | 51.42851 | 12.15832 | 1403 ft | 157 kts | 84° |
| 2026-05-07 19:12 | 51.42937 | 12.17545 | 1100 ft | 151 kts | 84° |
| 2026-05-07 19:12 | 51.43017 | 12.19199 | 828 ft | 147 kts | 85° |
| 2026-05-07 19:12 | 51.43086 | 12.20827 | 583 ft | 146 kts | 83° |
| 2026-05-07 19:12 | 51.43161 | 12.22431 | 434 ft | 143 kts | 83° |
| 2026-05-07 19:13 | 51.43238 | 12.23858 | 448 ft | 76 kts | 85° |
| 2026-05-07 19:13 | 51.43243 | 12.24057 | 446 ft | 0 kts | 105° |
| 2026-05-07 19:13 | 51.43217 | 12.24154 | 446 ft | 10 kts | 136° |
| 2026-05-07 19:13 | 51.43159 | 12.24177 | 447 ft | 8 kts | 176° |
| 2026-05-07 19:14 | 51.43103 | 12.24182 | 445 ft | 9 kts | 177° |
| 2026-05-07 19:14 | 51.43041 | 12.24187 | 440 ft | 9 kts | 177° |
| 2026-05-07 19:14 | 51.42986 | 12.24194 | 437 ft | 7 kts | 174° |
| 2026-05-07 19:14 | 51.42953 | 12.24221 | 437 ft | 4 kts | 129° |
| 2026-05-07 19:15 | 51.42943 | 12.24260 | 445 ft | 3 kts | 104° |
| 2026-05-07 19:15 | 51.42942 | 12.24311 | 445 ft | 7 kts | 88° |
| 2026-05-07 19:15 | 51.42946 | 12.24417 | 446 ft | 10 kts | 85° |
| 2026-05-07 19:15 | 51.42952 | 12.24537 | 447 ft | 14 kts | 85° |
| 2026-05-07 19:16 | 51.42959 | 12.24689 | 448 ft | 14 kts | 86° |
| 2026-05-07 19:16 | 51.42966 | 12.24853 | 449 ft | 15 kts | 85° |
| 2026-05-07 19:16 | 51.42972 | 12.25024 | 450 ft | 16 kts | 98° |
| 2026-05-07 19:16 | 51.42882 | 12.25063 | 452 ft | 14 kts | 193° |
| 2026-05-07 19:17 | 51.42740 | 12.25009 | 459 ft | 28 kts | 194° |
| 2026-05-07 19:17 | 51.42556 | 12.24939 | 468 ft | 26 kts | 193° |
| 2026-05-07 19:17 | 51.42386 | 12.24874 | 474 ft | 24 kts | 193° |
| 2026-05-07 19:17 | 51.42231 | 12.24814 | 481 ft | 22 kts | 193° |
| 2026-05-07 19:18 | 51.42087 | 12.24761 | 489 ft | 20 kts | 192° |
| 2026-05-07 19:18 | 51.41960 | 12.24712 | 490 ft | 18 kts | 194° |
| 2026-05-07 19:18 | 51.41826 | 12.24661 | 479 ft | 22 kts | 193° |
| 2026-05-07 19:18 | 51.41670 | 12.24573 | 475 ft | 25 kts | 234° |
| 2026-05-07 19:19 | 51.41645 | 12.24285 | 475 ft | 27 kts | 266° |
| 2026-05-07 19:19 | 51.41631 | 12.23974 | 470 ft | 30 kts | 266° |
| 2026-05-07 19:19 | 51.41615 | 12.23649 | 467 ft | 29 kts | 265° |
| 2026-05-07 19:19 | 51.41600 | 12.23344 | 463 ft | 27 kts | 265° |
| 2026-05-07 19:20 | 51.41631 | 12.23046 | 464 ft | 28 kts | 286° |
| 2026-05-07 19:20 | 51.41683 | 12.22747 | 461 ft | 29 kts | 285° |
| 2026-05-07 19:20 | 51.41738 | 12.22416 | 454 ft | 32 kts | 285° |
| 2026-05-07 19:20 | 51.41803 | 12.22050 | 447 ft | 36 kts | 284° |
| 2026-05-07 19:21 | 51.41852 | 12.21757 | 431 ft | 23 kts | 287° |
| 2026-05-07 19:21 | 51.41904 | 12.21643 | 439 ft | 11 kts | 20° |
| 2026-05-07 19:21 | 51.41960 | 12.21678 | 432 ft | 0 kts | 14° |
| 2026-05-07 19:21 | 51.41947 | 12.21689 | 431 ft | 0 kts | 15° |